sensor_id;sensor_type;location;lat;lon;timestamp;P1;durP1;ratioP1;P2;durP2;ratioP2
44139;SDS011;29803;51.048;4.686;2023-07-02T00:02:09;37.78;;;14.00;;
44139;SDS011;29803;51.048;4.686;2023-07-02T00:04:40;40.60;;;15.45;;
44139;SDS011;29803;51.048;4.686;2023-07-02T00:07:11;42.03;;;15.48;;
44139;SDS011;29803;51.048;4.686;2023-07-02T00:09:41;40.35;;;14.98;;
44139;SDS011;29803;51.048;4.686;2023-07-02T00:12:12;39.63;;;14.27;;
44139;SDS011;29803;51.048;4.686;2023-07-02T00:14:43;44.88;;;15.07;;
44139;SDS011;29803;51.048;4.686;2023-07-02T00:17:14;40.17;;;15.75;;
44139;SDS011;29803;51.048;4.686;2023-07-02T00:19:44;37.75;;;15.07;;
44139;SDS011;29803;51.048;4.686;2023-07-02T00:22:16;39.05;;;15.88;;
44139;SDS011;29803;51.048;4.686;2023-07-02T00:24:47;44.60;;;16.73;;
44139;SDS011;29803;51.048;4.686;2023-07-02T00:27:18;41.70;;;16.00;;
44139;SDS011;29803;51.048;4.686;2023-07-02T00:29:48;40.80;;;16.17;;
44139;SDS011;29803;51.048;4.686;2023-07-02T00:32:19;33.20;;;15.15;;
44139;SDS011;29803;51.048;4.686;2023-07-02T00:34:49;50.67;;;17.05;;
44139;SDS011;29803;51.048;4.686;2023-07-02T00:37:20;42.58;;;15.70;;
44139;SDS011;29803;51.048;4.686;2023-07-02T00:39:50;40.80;;;16.45;;
44139;SDS011;29803;51.048;4.686;2023-07-02T00:42:22;41.83;;;15.98;;
44139;SDS011;29803;51.048;4.686;2023-07-02T00:44:53;40.00;;;16.60;;
44139;SDS011;29803;51.048;4.686;2023-07-02T00:47:27;44.63;;;16.77;;
44139;SDS011;29803;51.048;4.686;2023-07-02T00:49:57;38.20;;;16.75;;
44139;SDS011;29803;51.048;4.686;2023-07-02T00:52:28;45.67;;;17.00;;
44139;SDS011;29803;51.048;4.686;2023-07-02T00:54:58;44.88;;;17.17;;
44139;SDS011;29803;51.048;4.686;2023-07-02T00:57:29;43.20;;;16.33;;
44139;SDS011;29803;51.048;4.686;2023-07-02T01:00:00;42.78;;;17.00;;
44139;SDS011;29803;51.048;4.686;2023-07-02T01:02:30;46.45;;;16.92;;
44139;SDS011;29803;51.048;4.686;2023-07-02T01:05:01;40.58;;;18.55;;
44139;SDS011;29803;51.048;4.686;2023-07-02T01:07:32;42.20;;;17.25;;
44139;SDS011;29803;51.048;4.686;2023-07-02T01:10:02;37.88;;;16.65;;
44139;SDS011;29803;51.048;4.686;2023-07-02T01:12:34;44.20;;;18.02;;
44139;SDS011;29803;51.048;4.686;2023-07-02T01:15:06;41.83;;;17.10;;
44139;SDS011;29803;51.048;4.686;2023-07-02T01:17:38;39.13;;;16.88;;
44139;SDS011;29803;51.048;4.686;2023-07-02T01:20:12;50.30;;;18.48;;
44139;SDS011;29803;51.048;4.686;2023-07-02T01:22:43;48.67;;;18.42;;
44139;SDS011;29803;51.048;4.686;2023-07-02T01:25:14;41.13;;;16.70;;
44139;SDS011;29803;51.048;4.686;2023-07-02T01:27:46;38.42;;;17.10;;
44139;SDS011;29803;51.048;4.686;2023-07-02T01:30:16;50.88;;;18.77;;
44139;SDS011;29803;51.048;4.686;2023-07-02T01:32:47;53.75;;;17.67;;
44139;SDS011;29803;51.048;4.686;2023-07-02T01:35:17;47.17;;;18.15;;
44139;SDS011;29803;51.048;4.686;2023-07-02T01:37:48;45.45;;;18.80;;
44139;SDS011;29803;51.048;4.686;2023-07-02T01:40:18;55.78;;;19.15;;
44139;SDS011;29803;51.048;4.686;2023-07-02T01:42:49;43.28;;;18.20;;
44139;SDS011;29803;51.048;4.686;2023-07-02T01:45:19;41.33;;;17.85;;
44139;SDS011;29803;51.048;4.686;2023-07-02T01:47:50;48.38;;;18.55;;
44139;SDS011;29803;51.048;4.686;2023-07-02T01:50:20;46.10;;;18.55;;
44139;SDS011;29803;51.048;4.686;2023-07-02T01:52:51;47.70;;;18.50;;
44139;SDS011;29803;51.048;4.686;2023-07-02T01:55:22;48.08;;;19.08;;
44139;SDS011;29803;51.048;4.686;2023-07-02T01:57:52;50.00;;;18.35;;
44139;SDS011;29803;51.048;4.686;2023-07-02T02:00:23;51.78;;;18.38;;
44139;SDS011;29803;51.048;4.686;2023-07-02T02:02:55;44.22;;;19.42;;
44139;SDS011;29803;51.048;4.686;2023-07-02T02:05:25;49.95;;;18.60;;
44139;SDS011;29803;51.048;4.686;2023-07-02T02:07:56;48.40;;;19.38;;
44139;SDS011;29803;51.048;4.686;2023-07-02T02:10:27;45.25;;;18.45;;
44139;SDS011;29803;51.048;4.686;2023-07-02T02:12:57;52.25;;;18.58;;
44139;SDS011;29803;51.048;4.686;2023-07-02T02:15:28;47.83;;;18.67;;
44139;SDS011;29803;51.048;4.686;2023-07-02T02:17:58;49.88;;;19.67;;
44139;SDS011;29803;51.048;4.686;2023-07-02T02:20:29;48.72;;;20.35;;
44139;SDS011;29803;51.048;4.686;2023-07-02T02:23:00;58.72;;;19.80;;
44139;SDS011;29803;51.048;4.686;2023-07-02T02:25:31;55.05;;;20.38;;
44139;SDS011;29803;51.048;4.686;2023-07-02T02:28:01;49.55;;;19.90;;
44139;SDS011;29803;51.048;4.686;2023-07-02T02:30:32;61.03;;;19.85;;
44139;SDS011;29803;51.048;4.686;2023-07-02T02:33:02;55.83;;;20.35;;
44139;SDS011;29803;51.048;4.686;2023-07-02T02:35:33;50.05;;;20.20;;
44139;SDS011;29803;51.048;4.686;2023-07-02T02:38:04;53.90;;;20.88;;
44139;SDS011;29803;51.048;4.686;2023-07-02T02:40:34;50.70;;;20.20;;
44139;SDS011;29803;51.048;4.686;2023-07-02T02:43:05;52.40;;;20.25;;
44139;SDS011;29803;51.048;4.686;2023-07-02T02:45:35;57.72;;;20.55;;
44139;SDS011;29803;51.048;4.686;2023-07-02T02:48:06;57.50;;;20.40;;
44139;SDS011;29803;51.048;4.686;2023-07-02T02:50:37;60.03;;;21.67;;
44139;SDS011;29803;51.048;4.686;2023-07-02T02:53:11;52.90;;;20.50;;
44139;SDS011;29803;51.048;4.686;2023-07-02T02:55:41;57.50;;;20.77;;
44139;SDS011;29803;51.048;4.686;2023-07-02T02:58:12;51.47;;;20.38;;
44139;SDS011;29803;51.048;4.686;2023-07-02T03:00:42;56.30;;;21.17;;
44139;SDS011;29803;51.048;4.686;2023-07-02T03:03:15;50.70;;;19.35;;
44139;SDS011;29803;51.048;4.686;2023-07-02T03:05:47;58.55;;;21.45;;
44139;SDS011;29803;51.048;4.686;2023-07-02T03:08:18;64.20;;;21.80;;
44139;SDS011;29803;51.048;4.686;2023-07-02T03:10:49;56.92;;;23.02;;
44139;SDS011;29803;51.048;4.686;2023-07-02T03:13:19;61.05;;;22.55;;
44139;SDS011;29803;51.048;4.686;2023-07-02T03:15:50;62.05;;;21.17;;
44139;SDS011;29803;51.048;4.686;2023-07-02T03:18:20;55.00;;;21.63;;
44139;SDS011;29803;51.048;4.686;2023-07-02T03:20:51;57.22;;;21.67;;
44139;SDS011;29803;51.048;4.686;2023-07-02T03:23:22;55.67;;;20.80;;
44139;SDS011;29803;51.048;4.686;2023-07-02T03:25:52;57.38;;;21.15;;
44139;SDS011;29803;51.048;4.686;2023-07-02T03:28:23;55.58;;;21.88;;
44139;SDS011;29803;51.048;4.686;2023-07-02T03:30:54;63.00;;;22.17;;
44139;SDS011;29803;51.048;4.686;2023-07-02T03:33:24;57.70;;;22.30;;
44139;SDS011;29803;51.048;4.686;2023-07-02T03:35:55;63.22;;;22.02;;
44139;SDS011;29803;51.048;4.686;2023-07-02T03:38:25;71.07;;;23.02;;
44139;SDS011;29803;51.048;4.686;2023-07-02T03:40:56;58.47;;;22.45;;
44139;SDS011;29803;51.048;4.686;2023-07-02T03:43:26;57.95;;;21.33;;
44139;SDS011;29803;51.048;4.686;2023-07-02T03:45:57;67.90;;;23.38;;
44139;SDS011;29803;51.048;4.686;2023-07-02T03:48:28;73.22;;;22.95;;
44139;SDS011;29803;51.048;4.686;2023-07-02T03:50:58;68.38;;;22.00;;
44139;SDS011;29803;51.048;4.686;2023-07-02T03:53:29;59.55;;;22.80;;
44139;SDS011;29803;51.048;4.686;2023-07-02T03:55:59;55.38;;;21.80;;
44139;SDS011;29803;51.048;4.686;2023-07-02T03:58:29;65.28;;;23.02;;
44139;SDS011;29803;51.048;4.686;2023-07-02T04:01:00;63.67;;;23.10;;
44139;SDS011;29803;51.048;4.686;2023-07-02T04:03:30;64.10;;;23.17;;
44139;SDS011;29803;51.048;4.686;2023-07-02T04:06:01;71.43;;;22.70;;
44139;SDS011;29803;51.048;4.686;2023-07-02T04:08:32;73.75;;;24.30;;
44139;SDS011;29803;51.048;4.686;2023-07-02T04:11:02;63.13;;;21.80;;
44139;SDS011;29803;51.048;4.686;2023-07-02T04:13:33;61.35;;;23.35;;
44139;SDS011;29803;51.048;4.686;2023-07-02T04:16:03;61.60;;;22.80;;
44139;SDS011;29803;51.048;4.686;2023-07-02T04:18:34;64.28;;;23.63;;
44139;SDS011;29803;51.048;4.686;2023-07-02T04:21:05;71.63;;;23.98;;
44139;SDS011;29803;51.048;4.686;2023-07-02T04:23:35;63.92;;;23.92;;
44139;SDS011;29803;51.048;4.686;2023-07-02T04:26:05;71.40;;;24.42;;
44139;SDS011;29803;51.048;4.686;2023-07-02T04:28:36;62.92;;;23.33;;
44139;SDS011;29803;51.048;4.686;2023-07-02T04:31:06;75.78;;;24.10;;
44139;SDS011;29803;51.048;4.686;2023-07-02T04:33:37;56.78;;;23.17;;
44139;SDS011;29803;51.048;4.686;2023-07-02T04:36:07;78.35;;;26.05;;
44139;SDS011;29803;51.048;4.686;2023-07-02T04:38:38;56.92;;;23.52;;
44139;SDS011;29803;51.048;4.686;2023-07-02T04:41:09;69.10;;;24.30;;
44139;SDS011;29803;51.048;4.686;2023-07-02T04:43:40;71.13;;;25.88;;
44139;SDS011;29803;51.048;4.686;2023-07-02T04:46:10;72.47;;;23.48;;
44139;SDS011;29803;51.048;4.686;2023-07-02T04:48:42;58.97;;;22.98;;
44139;SDS011;29803;51.048;4.686;2023-07-02T04:51:12;64.13;;;23.27;;
44139;SDS011;29803;51.048;4.686;2023-07-02T04:53:43;65.88;;;22.38;;
44139;SDS011;29803;51.048;4.686;2023-07-02T04:56:14;63.53;;;24.40;;
44139;SDS011;29803;51.048;4.686;2023-07-02T04:58:44;60.58;;;23.83;;
44139;SDS011;29803;51.048;4.686;2023-07-02T05:01:15;68.95;;;24.20;;
44139;SDS011;29803;51.048;4.686;2023-07-02T05:03:45;70.57;;;24.17;;
44139;SDS011;29803;51.048;4.686;2023-07-02T05:06:15;63.97;;;25.67;;
44139;SDS011;29803;51.048;4.686;2023-07-02T05:08:46;63.10;;;24.40;;
44139;SDS011;29803;51.048;4.686;2023-07-02T05:11:16;68.55;;;23.73;;
44139;SDS011;29803;51.048;4.686;2023-07-02T05:13:47;64.15;;;25.48;;
44139;SDS011;29803;51.048;4.686;2023-07-02T05:16:17;65.93;;;24.13;;
44139;SDS011;29803;51.048;4.686;2023-07-02T05:18:48;58.88;;;24.55;;
44139;SDS011;29803;51.048;4.686;2023-07-02T05:21:18;66.65;;;23.83;;
44139;SDS011;29803;51.048;4.686;2023-07-02T05:23:49;57.83;;;24.65;;
44139;SDS011;29803;51.048;4.686;2023-07-02T05:26:19;74.07;;;26.67;;
44139;SDS011;29803;51.048;4.686;2023-07-02T05:28:50;68.85;;;23.60;;
44139;SDS011;29803;51.048;4.686;2023-07-02T05:31:21;61.05;;;23.20;;
44139;SDS011;29803;51.048;4.686;2023-07-02T05:34:10;69.72;;;24.90;;
44139;SDS011;29803;51.048;4.686;2023-07-02T05:36:41;73.28;;;25.55;;
44139;SDS011;29803;51.048;4.686;2023-07-02T05:39:11;71.43;;;24.33;;
44139;SDS011;29803;51.048;4.686;2023-07-02T05:41:42;69.18;;;24.73;;
44139;SDS011;29803;51.048;4.686;2023-07-02T05:44:12;65.75;;;24.63;;
44139;SDS011;29803;51.048;4.686;2023-07-02T05:46:43;66.00;;;24.45;;
44139;SDS011;29803;51.048;4.686;2023-07-02T05:49:13;62.92;;;23.98;;
44139;SDS011;29803;51.048;4.686;2023-07-02T05:51:44;72.38;;;25.55;;
44139;SDS011;29803;51.048;4.686;2023-07-02T05:54:14;54.70;;;23.33;;
44139;SDS011;29803;51.048;4.686;2023-07-02T05:56:44;61.08;;;25.02;;
44139;SDS011;29803;51.048;4.686;2023-07-02T05:59:15;75.20;;;24.02;;
44139;SDS011;29803;51.048;4.686;2023-07-02T06:01:48;60.25;;;24.27;;
44139;SDS011;29803;51.048;4.686;2023-07-02T06:04:18;71.25;;;24.73;;
44139;SDS011;29803;51.048;4.686;2023-07-02T06:06:48;58.63;;;22.55;;
44139;SDS011;29803;51.048;4.686;2023-07-02T06:09:19;64.70;;;24.55;;
44139;SDS011;29803;51.048;4.686;2023-07-02T06:11:49;62.72;;;23.40;;
44139;SDS011;29803;51.048;4.686;2023-07-02T06:14:20;66.82;;;25.05;;
44139;SDS011;29803;51.048;4.686;2023-07-02T06:16:51;61.78;;;21.67;;
44139;SDS011;29803;51.048;4.686;2023-07-02T06:19:22;59.65;;;23.05;;
44139;SDS011;29803;51.048;4.686;2023-07-02T06:21:53;59.08;;;23.80;;
44139;SDS011;29803;51.048;4.686;2023-07-02T06:24:23;58.13;;;22.90;;
44139;SDS011;29803;51.048;4.686;2023-07-02T06:26:54;60.47;;;23.88;;
44139;SDS011;29803;51.048;4.686;2023-07-02T06:29:24;64.70;;;23.88;;
44139;SDS011;29803;51.048;4.686;2023-07-02T06:31:55;66.28;;;23.17;;
44139;SDS011;29803;51.048;4.686;2023-07-02T06:34:25;57.78;;;23.40;;
44139;SDS011;29803;51.048;4.686;2023-07-02T06:36:56;59.70;;;24.08;;
44139;SDS011;29803;51.048;4.686;2023-07-02T06:39:26;60.67;;;22.42;;
44139;SDS011;29803;51.048;4.686;2023-07-02T06:41:57;66.22;;;25.23;;
44139;SDS011;29803;51.048;4.686;2023-07-02T06:44:27;63.30;;;23.45;;
44139;SDS011;29803;51.048;4.686;2023-07-02T06:46:58;56.13;;;22.90;;
44139;SDS011;29803;51.048;4.686;2023-07-02T06:49:29;58.85;;;23.42;;
44139;SDS011;29803;51.048;4.686;2023-07-02T06:52:00;65.50;;;22.98;;
44139;SDS011;29803;51.048;4.686;2023-07-02T06:54:30;55.03;;;20.80;;
44139;SDS011;29803;51.048;4.686;2023-07-02T06:57:01;57.67;;;22.27;;
44139;SDS011;29803;51.048;4.686;2023-07-02T06:59:31;50.15;;;22.08;;
44139;SDS011;29803;51.048;4.686;2023-07-02T07:02:02;65.30;;;22.08;;
44139;SDS011;29803;51.048;4.686;2023-07-02T07:04:33;63.17;;;21.95;;
44139;SDS011;29803;51.048;4.686;2023-07-02T07:07:04;57.50;;;21.67;;
44139;SDS011;29803;51.048;4.686;2023-07-02T07:09:36;52.50;;;20.92;;
44139;SDS011;29803;51.048;4.686;2023-07-02T07:12:06;56.60;;;21.35;;
44139;SDS011;29803;51.048;4.686;2023-07-02T07:14:37;55.97;;;19.38;;
44139;SDS011;29803;51.048;4.686;2023-07-02T07:17:07;62.58;;;21.17;;
44139;SDS011;29803;51.048;4.686;2023-07-02T07:19:38;50.22;;;17.95;;
44139;SDS011;29803;51.048;4.686;2023-07-02T07:22:09;41.47;;;17.55;;
44139;SDS011;29803;51.048;4.686;2023-07-02T07:24:41;43.65;;;16.45;;
44139;SDS011;29803;51.048;4.686;2023-07-02T07:27:12;42.08;;;15.85;;
44139;SDS011;29803;51.048;4.686;2023-07-02T07:29:42;37.40;;;14.68;;
44139;SDS011;29803;51.048;4.686;2023-07-02T07:32:13;40.88;;;15.38;;
44139;SDS011;29803;51.048;4.686;2023-07-02T07:34:43;39.42;;;14.10;;
44139;SDS011;29803;51.048;4.686;2023-07-02T07:37:14;37.67;;;15.32;;
44139;SDS011;29803;51.048;4.686;2023-07-02T07:39:44;43.25;;;14.52;;
44139;SDS011;29803;51.048;4.686;2023-07-02T07:42:15;44.75;;;13.73;;
44139;SDS011;29803;51.048;4.686;2023-07-02T07:44:47;27.05;;;11.77;;
44139;SDS011;29803;51.048;4.686;2023-07-02T07:47:17;32.42;;;10.48;;
44139;SDS011;29803;51.048;4.686;2023-07-02T07:49:48;32.58;;;11.45;;
44139;SDS011;29803;51.048;4.686;2023-07-02T07:52:18;28.67;;;10.40;;
44139;SDS011;29803;51.048;4.686;2023-07-02T07:54:49;26.33;;;10.48;;
44139;SDS011;29803;51.048;4.686;2023-07-02T07:57:20;31.95;;;10.35;;
44139;SDS011;29803;51.048;4.686;2023-07-02T07:59:50;27.02;;;9.35;;
44139;SDS011;29803;51.048;4.686;2023-07-02T08:02:21;24.85;;;9.52;;
44139;SDS011;29803;51.048;4.686;2023-07-02T08:04:53;20.65;;;8.15;;
44139;SDS011;29803;51.048;4.686;2023-07-02T08:07:24;23.75;;;7.68;;
44139;SDS011;29803;51.048;4.686;2023-07-02T08:09:55;27.40;;;8.55;;
44139;SDS011;29803;51.048;4.686;2023-07-02T08:12:26;24.35;;;8.23;;
44139;SDS011;29803;51.048;4.686;2023-07-02T08:14:59;18.52;;;7.50;;
44139;SDS011;29803;51.048;4.686;2023-07-02T08:17:30;21.20;;;8.32;;
44139;SDS011;29803;51.048;4.686;2023-07-02T08:20:01;19.77;;;6.88;;
44139;SDS011;29803;51.048;4.686;2023-07-02T08:22:34;18.00;;;6.97;;
44139;SDS011;29803;51.048;4.686;2023-07-02T08:25:06;20.67;;;6.88;;
44139;SDS011;29803;51.048;4.686;2023-07-02T08:27:37;17.08;;;6.57;;
44139;SDS011;29803;51.048;4.686;2023-07-02T08:30:08;16.65;;;6.72;;
44139;SDS011;29803;51.048;4.686;2023-07-02T08:32:39;16.88;;;7.70;;
44139;SDS011;29803;51.048;4.686;2023-07-02T08:35:10;21.98;;;6.70;;
44139;SDS011;29803;51.048;4.686;2023-07-02T08:37:41;15.77;;;7.10;;
44139;SDS011;29803;51.048;4.686;2023-07-02T08:43:01;16.05;;;5.93;;
44139;SDS011;29803;51.048;4.686;2023-07-02T08:45:31;17.13;;;6.22;;
44139;SDS011;29803;51.048;4.686;2023-07-02T08:48:02;15.13;;;6.57;;
44139;SDS011;29803;51.048;4.686;2023-07-02T08:50:33;15.32;;;6.88;;
44139;SDS011;29803;51.048;4.686;2023-07-02T08:53:04;18.60;;;6.38;;
44139;SDS011;29803;51.048;4.686;2023-07-02T08:55:34;15.80;;;6.18;;
44139;SDS011;29803;51.048;4.686;2023-07-02T08:58:05;23.52;;;7.50;;
44139;SDS011;29803;51.048;4.686;2023-07-02T09:00:36;18.38;;;6.57;;
44139;SDS011;29803;51.048;4.686;2023-07-02T09:05:55;17.38;;;6.18;;
44139;SDS011;29803;51.048;4.686;2023-07-02T09:08:26;17.83;;;6.90;;
44139;SDS011;29803;51.048;4.686;2023-07-02T09:13:50;19.25;;;6.72;;
44139;SDS011;29803;51.048;4.686;2023-07-02T09:16:24;20.83;;;7.50;;
44139;SDS011;29803;51.048;4.686;2023-07-02T09:18:59;18.42;;;6.72;;
44139;SDS011;29803;51.048;4.686;2023-07-02T09:24:22;17.23;;;6.95;;
44139;SDS011;29803;51.048;4.686;2023-07-02T09:26:53;20.67;;;7.22;;
44139;SDS011;29803;51.048;4.686;2023-07-02T09:29:27;19.17;;;8.25;;
44139;SDS011;29803;51.048;4.686;2023-07-02T09:32:01;20.20;;;8.43;;
44139;SDS011;29803;51.048;4.686;2023-07-02T09:34:34;15.93;;;7.35;;
44139;SDS011;29803;51.048;4.686;2023-07-02T09:37:10;22.35;;;8.10;;
44139;SDS011;29803;51.048;4.686;2023-07-02T09:39:41;25.27;;;8.60;;
44139;SDS011;29803;51.048;4.686;2023-07-02T09:42:12;25.05;;;9.73;;
44139;SDS011;29803;51.048;4.686;2023-07-02T09:44:43;27.08;;;8.35;;
44139;SDS011;29803;51.048;4.686;2023-07-02T09:47:16;24.45;;;10.32;;
44139;SDS011;29803;51.048;4.686;2023-07-02T09:49:49;26.38;;;10.27;;
44139;SDS011;29803;51.048;4.686;2023-07-02T09:52:25;25.95;;;8.88;;
44139;SDS011;29803;51.048;4.686;2023-07-02T09:54:57;24.20;;;9.85;;
44139;SDS011;29803;51.048;4.686;2023-07-02T09:57:28;27.95;;;10.40;;
44139;SDS011;29803;51.048;4.686;2023-07-02T10:00:01;31.23;;;10.68;;
44139;SDS011;29803;51.048;4.686;2023-07-02T10:02:34;28.52;;;10.35;;
44139;SDS011;29803;51.048;4.686;2023-07-02T10:05:06;31.05;;;10.85;;
44139;SDS011;29803;51.048;4.686;2023-07-02T10:07:37;31.08;;;10.13;;
44139;SDS011;29803;51.048;4.686;2023-07-02T10:10:08;28.73;;;10.25;;
44139;SDS011;29803;51.048;4.686;2023-07-02T10:12:45;24.90;;;9.13;;
44139;SDS011;29803;51.048;4.686;2023-07-02T10:15:24;28.30;;;9.75;;
44139;SDS011;29803;51.048;4.686;2023-07-02T10:17:57;28.98;;;10.60;;
44139;SDS011;29803;51.048;4.686;2023-07-02T10:20:39;30.33;;;10.77;;
44139;SDS011;29803;51.048;4.686;2023-07-02T10:23:11;30.17;;;10.75;;
44139;SDS011;29803;51.048;4.686;2023-07-02T10:25:42;23.85;;;10.15;;
44139;SDS011;29803;51.048;4.686;2023-07-02T10:31:01;27.75;;;11.20;;
44139;SDS011;29803;51.048;4.686;2023-07-02T10:33:32;26.75;;;11.02;;
44139;SDS011;29803;51.048;4.686;2023-07-02T10:36:02;29.45;;;11.35;;
44139;SDS011;29803;51.048;4.686;2023-07-02T10:38:33;34.95;;;11.38;;
44139;SDS011;29803;51.048;4.686;2023-07-02T10:41:04;32.72;;;10.95;;
44139;SDS011;29803;51.048;4.686;2023-07-02T10:43:34;32.63;;;10.75;;
44139;SDS011;29803;51.048;4.686;2023-07-02T10:46:04;26.88;;;10.50;;
44139;SDS011;29803;51.048;4.686;2023-07-02T10:48:35;26.55;;;10.52;;
44139;SDS011;29803;51.048;4.686;2023-07-02T10:53:59;30.63;;;10.20;;
44139;SDS011;29803;51.048;4.686;2023-07-02T10:56:31;32.10;;;11.15;;
44139;SDS011;29803;51.048;4.686;2023-07-02T10:59:03;32.42;;;11.02;;
44139;SDS011;29803;51.048;4.686;2023-07-02T11:01:33;26.05;;;9.93;;
44139;SDS011;29803;51.048;4.686;2023-07-02T11:04:04;30.75;;;11.85;;
44139;SDS011;29803;51.048;4.686;2023-07-02T11:06:35;27.05;;;9.93;;
44139;SDS011;29803;51.048;4.686;2023-07-02T11:09:15;26.38;;;9.05;;
44139;SDS011;29803;51.048;4.686;2023-07-02T11:14:36;24.67;;;9.15;;
44139;SDS011;29803;51.048;4.686;2023-07-02T11:17:06;24.70;;;9.05;;
44139;SDS011;29803;51.048;4.686;2023-07-02T11:19:37;32.40;;;10.10;;
44139;SDS011;29803;51.048;4.686;2023-07-02T11:22:08;24.65;;;9.85;;
44139;SDS011;29803;51.048;4.686;2023-07-02T11:24:39;28.35;;;11.15;;
44139;SDS011;29803;51.048;4.686;2023-07-02T11:27:09;27.33;;;9.68;;
44139;SDS011;29803;51.048;4.686;2023-07-02T11:29:58;25.83;;;10.18;;
44139;SDS011;29803;51.048;4.686;2023-07-02T11:32:29;28.58;;;10.25;;
44139;SDS011;29803;51.048;4.686;2023-07-02T11:35:00;34.10;;;11.30;;
44139;SDS011;29803;51.048;4.686;2023-07-02T11:37:30;25.15;;;10.30;;
44139;SDS011;29803;51.048;4.686;2023-07-02T11:40:01;23.52;;;9.32;;
44139;SDS011;29803;51.048;4.686;2023-07-02T11:42:31;25.80;;;8.55;;
44139;SDS011;29803;51.048;4.686;2023-07-02T11:45:01;24.13;;;9.73;;
44139;SDS011;29803;51.048;4.686;2023-07-02T11:47:32;22.15;;;9.05;;
44139;SDS011;29803;51.048;4.686;2023-07-02T11:50:03;24.02;;;8.68;;
44139;SDS011;29803;51.048;4.686;2023-07-02T11:52:34;33.20;;;9.02;;
44139;SDS011;29803;51.048;4.686;2023-07-02T11:55:04;26.02;;;9.55;;
44139;SDS011;29803;51.048;4.686;2023-07-02T11:57:35;25.67;;;9.20;;
44139;SDS011;29803;51.048;4.686;2023-07-02T12:00:06;28.48;;;9.85;;
44139;SDS011;29803;51.048;4.686;2023-07-02T12:02:37;29.15;;;9.73;;
44139;SDS011;29803;51.048;4.686;2023-07-02T12:05:07;22.15;;;9.15;;
44139;SDS011;29803;51.048;4.686;2023-07-02T12:07:38;25.05;;;8.95;;
44139;SDS011;29803;51.048;4.686;2023-07-02T12:10:09;31.63;;;9.93;;
44139;SDS011;29803;51.048;4.686;2023-07-02T12:12:39;27.80;;;10.57;;
44139;SDS011;29803;51.048;4.686;2023-07-02T12:15:10;23.42;;;8.73;;
44139;SDS011;29803;51.048;4.686;2023-07-02T12:17:40;26.42;;;9.18;;
44139;SDS011;29803;51.048;4.686;2023-07-02T12:20:11;22.23;;;8.48;;
44139;SDS011;29803;51.048;4.686;2023-07-02T12:22:43;23.17;;;9.02;;
44139;SDS011;29803;51.048;4.686;2023-07-02T12:25:15;25.75;;;8.38;;
44139;SDS011;29803;51.048;4.686;2023-07-02T12:27:45;19.63;;;8.23;;
44139;SDS011;29803;51.048;4.686;2023-07-02T12:30:16;22.10;;;8.35;;
44139;SDS011;29803;51.048;4.686;2023-07-02T12:32:47;23.73;;;8.43;;
44139;SDS011;29803;51.048;4.686;2023-07-02T12:35:18;24.67;;;8.88;;
44139;SDS011;29803;51.048;4.686;2023-07-02T12:37:50;24.05;;;9.30;;
44139;SDS011;29803;51.048;4.686;2023-07-02T12:40:22;21.65;;;8.10;;
44139;SDS011;29803;51.048;4.686;2023-07-02T12:42:53;22.98;;;8.73;;
44139;SDS011;29803;51.048;4.686;2023-07-02T12:45:24;19.55;;;8.27;;
44139;SDS011;29803;51.048;4.686;2023-07-02T12:47:55;25.33;;;8.68;;
44139;SDS011;29803;51.048;4.686;2023-07-02T12:50:26;20.48;;;8.80;;
44139;SDS011;29803;51.048;4.686;2023-07-02T12:52:56;19.73;;;8.02;;
44139;SDS011;29803;51.048;4.686;2023-07-02T12:55:27;24.73;;;9.32;;
44139;SDS011;29803;51.048;4.686;2023-07-02T12:57:58;21.58;;;8.32;;
44139;SDS011;29803;51.048;4.686;2023-07-02T13:00:34;20.93;;;9.00;;
44139;SDS011;29803;51.048;4.686;2023-07-02T13:03:09;22.42;;;8.50;;
44139;SDS011;29803;51.048;4.686;2023-07-02T13:05:41;19.60;;;8.20;;
44139;SDS011;29803;51.048;4.686;2023-07-02T13:08:12;25.85;;;8.30;;
44139;SDS011;29803;51.048;4.686;2023-07-02T13:10:45;21.70;;;7.50;;
44139;SDS011;29803;51.048;4.686;2023-07-02T13:13:16;22.58;;;7.90;;
44139;SDS011;29803;51.048;4.686;2023-07-02T13:15:46;17.45;;;7.82;;
44139;SDS011;29803;51.048;4.686;2023-07-02T13:18:17;22.48;;;8.18;;
44139;SDS011;29803;51.048;4.686;2023-07-02T13:20:47;19.75;;;8.52;;
44139;SDS011;29803;51.048;4.686;2023-07-02T13:23:18;23.75;;;8.05;;
44139;SDS011;29803;51.048;4.686;2023-07-02T13:25:49;24.45;;;8.10;;
44139;SDS011;29803;51.048;4.686;2023-07-02T13:28:20;19.33;;;7.03;;
44139;SDS011;29803;51.048;4.686;2023-07-02T13:30:51;20.33;;;7.63;;
44139;SDS011;29803;51.048;4.686;2023-07-02T13:33:22;20.88;;;8.05;;
44139;SDS011;29803;51.048;4.686;2023-07-02T13:35:53;27.27;;;8.90;;
44139;SDS011;29803;51.048;4.686;2023-07-02T13:38:25;23.02;;;8.95;;
44139;SDS011;29803;51.048;4.686;2023-07-02T13:40:56;21.60;;;7.85;;
44139;SDS011;29803;51.048;4.686;2023-07-02T13:43:27;24.48;;;8.27;;
44139;SDS011;29803;51.048;4.686;2023-07-02T13:45:57;21.50;;;8.35;;
44139;SDS011;29803;51.048;4.686;2023-07-02T13:48:28;19.52;;;8.10;;
44139;SDS011;29803;51.048;4.686;2023-07-02T13:50:59;17.13;;;7.78;;
44139;SDS011;29803;51.048;4.686;2023-07-02T13:53:31;23.48;;;7.55;;
44139;SDS011;29803;51.048;4.686;2023-07-02T13:56:06;22.15;;;7.55;;
44139;SDS011;29803;51.048;4.686;2023-07-02T14:01:28;23.05;;;8.02;;
44139;SDS011;29803;51.048;4.686;2023-07-02T14:04:02;28.20;;;10.18;;
44139;SDS011;29803;51.048;4.686;2023-07-02T14:06:34;25.20;;;7.78;;
44139;SDS011;29803;51.048;4.686;2023-07-02T14:09:05;21.23;;;8.25;;
44139;SDS011;29803;51.048;4.686;2023-07-02T14:11:38;20.67;;;8.77;;
44139;SDS011;29803;51.048;4.686;2023-07-02T14:14:10;22.10;;;8.20;;
44139;SDS011;29803;51.048;4.686;2023-07-02T14:16:41;20.17;;;8.40;;
44139;SDS011;29803;51.048;4.686;2023-07-02T14:19:12;20.55;;;7.93;;
44139;SDS011;29803;51.048;4.686;2023-07-02T14:21:42;25.50;;;9.20;;
44139;SDS011;29803;51.048;4.686;2023-07-02T14:24:13;17.42;;;7.13;;
44139;SDS011;29803;51.048;4.686;2023-07-02T14:26:44;21.25;;;8.13;;
44139;SDS011;29803;51.048;4.686;2023-07-02T14:29:14;21.65;;;7.85;;
44139;SDS011;29803;51.048;4.686;2023-07-02T14:31:45;21.98;;;8.00;;
44139;SDS011;29803;51.048;4.686;2023-07-02T14:34:15;17.50;;;7.78;;
44139;SDS011;29803;51.048;4.686;2023-07-02T14:36:46;24.30;;;8.07;;
44139;SDS011;29803;51.048;4.686;2023-07-02T14:39:16;22.35;;;7.85;;
44139;SDS011;29803;51.048;4.686;2023-07-02T14:41:47;16.58;;;7.40;;
44139;SDS011;29803;51.048;4.686;2023-07-02T14:44:17;19.92;;;8.07;;
44139;SDS011;29803;51.048;4.686;2023-07-02T14:46:48;22.25;;;7.90;;
44139;SDS011;29803;51.048;4.686;2023-07-02T14:49:18;20.15;;;8.52;;
44139;SDS011;29803;51.048;4.686;2023-07-02T14:51:49;23.10;;;7.93;;
44139;SDS011;29803;51.048;4.686;2023-07-02T14:54:19;21.88;;;7.63;;
44139;SDS011;29803;51.048;4.686;2023-07-02T14:56:50;22.17;;;8.57;;
44139;SDS011;29803;51.048;4.686;2023-07-02T14:59:20;17.00;;;7.13;;
44139;SDS011;29803;51.048;4.686;2023-07-02T15:01:51;19.73;;;8.07;;
44139;SDS011;29803;51.048;4.686;2023-07-02T15:04:21;19.13;;;7.60;;
44139;SDS011;29803;51.048;4.686;2023-07-02T15:06:52;24.50;;;7.88;;
44139;SDS011;29803;51.048;4.686;2023-07-02T15:09:22;23.13;;;7.90;;
44139;SDS011;29803;51.048;4.686;2023-07-02T15:11:53;20.52;;;7.70;;